Saturday, November 18, 2017, 6:16 PM EST
Back to Local

KSBY, Salisbury-wicomico Cty Reg

Location: Salisbury, MD, United States Lat: 38.333
Local Time: 6:16 PM EST (23:16 GMT) Lon: -75.5
Time Zone: US/Eastern Elev: 52 ft

Show me the last for .
Show Coded

Time T Td Feel RH Dir Speed Gust Alt SLP Vis Weather Sky Remarks
2017-11-18 17:54 57 48 - 71 200° 12 - 29.67 29.68 10 CLR None
2017-11-18 16:54 57 45 - 63 190° 12 - 29.69 29.69 10 CLR None
2017-11-18 15:54 57 42 - 57 180° 13 - 29.69 29.70 10 CLR None
2017-11-18 14:54 60 38 - 43 180° 12 - 29.72 29.73 10 CLR Peak wind: 31 mph (27 kts) from 200° at 03 min
2017-11-18 13:54 62 31 - 30 200° 20 25 29.74 29.75 10 CLR Peak wind: 32 mph (28 kts) from 190° at 36 min
2017-11-18 12:54 61 36 - 39 200° 14 25 29.79 29.79 10 CLR Peak wind: 31 mph (27 kts) from 220° at 35 min
6-hr Min Temp (1pm): 36.0°F
6-hr Max Temp (1pm): 61.0°F
2017-11-18 11:54 55 39 - 54 190° 12 22 29.84 29.85 10 CLR None
2017-11-18 10:54 54 41 - 61 200° 14 22 29.90 29.91 10 CLR None
2017-11-18 09:54 50 41 46 71 190° 12 - 29.94 29.95 10 CLR None
2017-11-18 08:54 46 39 41 76 180° 9 - 29.98 29.98 10 CLR None
2017-11-18 07:54 39 36 34 88 180° 7 - 30.00 30.01 10 CLR None
2017-11-18 06:54 36 33 33 89 150° 3 - 30.02 30.02 10 CLR 6-hr Min Temp (7am): 28.9°F
6-hr Max Temp (7am): 36.0°F
2017-11-18 05:54 30 29 26 95 160° 3 - 30.03 30.04 10 CLR None
2017-11-18 04:54 29 27 - 92 - Calm - 30.04 30.05 10 CLR None
2017-11-18 03:54 30 27 26 88 120° 3 - 30.05 30.05 10 CLR None
2017-11-18 02:54 30 28 - 92 - Calm - 30.07 30.07 10 CLR None
2017-11-18 01:54 29 28 - 96 - Calm - 30.09 30.09 10 CLR None
2017-11-18 00:54 30 28 - 92 - Calm - 30.10 30.11 10 CLR 6-hr Min Temp (1am): 28.9°F
6-hr Max Temp (1am): 37.0°F
2017-11-17 23:54 30 28 - 92 - Calm - 30.10 30.11 10 CLR 24-hr Min Temp (12am): 28.9°F
24-hr Max Temp (12am): 52.0°F
2017-11-17 22:54 30 28 - 92 - Calm - 30.13 30.13 10 CLR None
2017-11-17 21:54 31 29 27 92 110° 3 - 30.14 30.14 10 CLR None
2017-11-17 20:54 32 30 - 92 - Calm - 30.13 30.14 10 CLR None
2017-11-17 19:54 35 32 - 88 - Calm - 30.14 30.14 10 CLR None
2017-11-17 18:54 37 32 - 81 - Calm - 30.15 30.16 10 CLR 6-hr Min Temp (7pm): 37.0°F
6-hr Max Temp (7pm): 52.0°F

Support USWX by starting your Amazon purchase here.